Jackson, NH (03846)

2:43 AM EDT on August 20, 2017 (GMT -0400)
Thorne Hill Summit | | Change Station

Elev 1200 ft 44.13 °N, 71.17 °W | Updated 17 seconds ago

Partly Cloudy
Partly Cloudy
64.8 °F
Feels Like 64.8 °F
N
2.0
Wind Variable Wind from SSE

Today
High -- | Low -- °F
--% Chance of Precip.
Yesterday
High -- | Low -- °F
Precip. -- in
Pressure 29.83 in
Visibility 10.0 miles
Clouds Clear
Dew Point 60 °F
Humidity 86%
Rainfall 0.00 in
Snow Depth Not available.
5:54 AM 7:40 PM
Waning Crescent, 3% visible
METAR KIZG 200554Z AUTO 25005KT 10SM CLR 20/17 A2983 RMK AO2 SLP100 T02000167 10233 20200 51009
Pressure 29.83 in
Visibility 10.0 miles
Clouds Clear
Dew Point 60 °F
Humidity 86%
Rainfall 0.00 in
Snow Depth Not available.
5:54 AM 7:40 PM
Waning Crescent, 3% visible
METAR KIZG 200554Z AUTO 25005KT 10SM CLR 20/17 A2983 RMK AO2 SLP100 T02000167 10233 20200 51009

Get Severe Weather Alerts

Thanks for signing up!

Be on the lookout for a verification email in your inbox.

You'll start receiving the daily forecast at 6 AM.

×

10-Day Weather Forecast

Almanac

Astronomy

Aug. 20, 2017 Rise Set
Actual Time
Civil Twilight
Nautical Twilight
Astronomical Twilight
Moon
Length of Visible Light
Length of Day
Tomorrow will be .
, % of the Moon is Illuminated

Today's Extremes

State Highs State Lows

Community

WunderPhotos

Category 6

Welcome to Category 6. This is the collective home for Weather Underground's featured writeups by Dr. Jeff Masters (right), Bob Henson (left), Chris Burt, and other regular contributors.

Nearby

Air Quality

  Air Quality AQ Index Pollutant
Not available.

Snow Depth

Station Depth Elevation

Earthquake Activity

City Distance Mag. Time & Date
Minimum magnitude displayed is 2.5.

Coastal Water Temperatures

Place Temperature

Stations

Nearby Weather Stations

Station Location Temp. Windchill Dew Point Humidity Wind Precip. Elev Updated Type
                   

Watches & Warnings

There are currently no watches in effect.